createdAt,value
2018-03-24T00:00:15.754Z,0.00
2018-03-24T00:01:15.727Z,0.00
2018-03-24T00:02:15.706Z,0.00
2018-03-24T00:03:15.689Z,0.00
2018-03-24T00:04:15.654Z,0.00
2018-03-24T00:05:15.642Z,0.00
2018-03-24T00:06:15.607Z,0.00
2018-03-24T00:07:15.582Z,0.00
2018-03-24T00:08:15.621Z,0.00
2018-03-24T00:09:15.568Z,0.00
2018-03-24T00:10:15.514Z,0.00
2018-03-24T00:11:15.487Z,0.00
2018-03-24T00:12:15.466Z,0.00
2018-03-24T00:13:15.442Z,0.00
2018-03-24T00:14:15.418Z,0.00
2018-03-24T00:15:15.395Z,0.00
2018-03-24T00:16:15.368Z,0.00
2018-03-24T00:17:15.345Z,0.00
2018-03-24T00:18:15.323Z,0.00
2018-03-24T00:19:15.303Z,0.00
2018-03-24T00:20:15.272Z,0.00
2018-03-24T00:21:15.249Z,0.00
2018-03-24T00:22:15.226Z,0.00
2018-03-24T00:23:15.201Z,0.00
2018-03-24T00:24:15.179Z,0.00
2018-03-24T00:25:15.153Z,0.00
2018-03-24T00:26:15.132Z,0.00
2018-03-24T00:27:15.104Z,0.00
2018-03-24T00:28:15.090Z,0.00
2018-03-24T00:29:15.057Z,0.00
2018-03-24T00:30:15.033Z,0.00
2018-03-24T00:31:15.008Z,0.00
2018-03-24T00:32:14.988Z,0.00
2018-03-24T00:33:14.959Z,0.00
2018-03-24T00:34:14.937Z,0.00
2018-03-24T00:35:14.911Z,0.00
2018-03-24T00:36:14.893Z,0.00
2018-03-24T00:37:14.864Z,0.00
2018-03-24T00:38:14.849Z,0.00
2018-03-24T00:39:14.813Z,0.00
2018-03-24T00:40:14.791Z,0.00
2018-03-24T00:41:14.766Z,0.00
2018-03-24T00:42:14.745Z,0.00
2018-03-24T00:43:14.717Z,0.00
2018-03-24T00:44:14.693Z,0.00
2018-03-24T00:45:14.669Z,0.00
2018-03-24T00:46:14.644Z,0.00
2018-03-24T00:47:14.619Z,0.00
2018-03-24T00:48:14.595Z,0.00
2018-03-24T00:49:14.572Z,0.00
2018-03-24T00:50:14.552Z,0.00
2018-03-24T00:51:14.541Z,0.00
2018-03-24T00:52:14.500Z,0.00
2018-03-24T00:53:14.473Z,0.00
2018-03-24T00:54:14.450Z,0.00
2018-03-24T00:55:14.423Z,0.00
2018-03-24T00:56:14.400Z,0.00
2018-03-24T00:57:14.375Z,0.00
2018-03-24T00:58:14.350Z,0.00
2018-03-24T00:59:14.328Z,0.00
2018-03-24T01:00:14.301Z,0.00
2018-03-24T01:01:14.277Z,0.00
2018-03-24T01:02:14.253Z,0.00
2018-03-24T01:03:14.226Z,0.00
2018-03-24T01:04:14.202Z,0.00
2018-03-24T01:05:14.179Z,0.00
2018-03-24T01:06:14.153Z,0.00
2018-03-24T01:07:14.128Z,0.00
2018-03-24T01:08:14.101Z,0.00
2018-03-24T01:09:14.077Z,0.00
2018-03-24T01:10:14.054Z,0.00
2018-03-24T01:11:14.029Z,0.00
2018-03-24T01:12:14.003Z,0.00
2018-03-24T01:13:13.980Z,0.00
2018-03-24T01:14:13.954Z,0.00
2018-03-24T01:15:13.927Z,0.00
2018-03-24T01:16:13.901Z,0.00
2018-03-24T01:17:13.878Z,0.00
2018-03-24T01:18:13.853Z,0.00
2018-03-24T01:19:13.829Z,0.00
2018-03-24T01:20:13.803Z,0.00
2018-03-24T01:21:13.778Z,0.00
2018-03-24T01:22:13.752Z,0.00
2018-03-24T01:23:13.728Z,0.00
2018-03-24T01:24:13.704Z,0.00
2018-03-24T01:25:13.680Z,0.00
2018-03-24T01:26:13.654Z,0.00
2018-03-24T01:27:13.628Z,0.00
2018-03-24T01:28:13.607Z,0.00
2018-03-24T01:29:13.578Z,0.00
2018-03-24T01:30:13.557Z,0.00
2018-03-24T01:31:13.527Z,0.00
2018-03-24T01:32:13.525Z,0.00
2018-03-24T01:33:13.479Z,0.00
2018-03-24T01:34:13.454Z,0.00
2018-03-24T01:35:13.428Z,0.00
2018-03-24T01:36:13.401Z,0.00
2018-03-24T01:37:13.377Z,0.00
2018-03-24T01:38:13.351Z,0.00
2018-03-24T01:39:13.327Z,0.00
2018-03-24T01:40:13.302Z,0.00
2018-03-24T01:41:13.275Z,0.00
2018-03-24T01:42:13.250Z,0.00
2018-03-24T01:43:13.224Z,0.00
2018-03-24T01:44:13.199Z,0.00
2018-03-24T01:45:13.174Z,0.00
2018-03-24T01:46:13.150Z,0.00
2018-03-24T01:47:13.123Z,0.00
2018-03-24T01:48:13.098Z,0.00
2018-03-24T01:49:13.080Z,0.00
2018-03-24T01:50:13.048Z,0.00
2018-03-24T01:51:13.022Z,0.00
2018-03-24T01:52:12.996Z,0.00
2018-03-24T01:53:12.974Z,0.00
2018-03-24T01:54:12.945Z,0.00
2018-03-24T01:55:12.942Z,0.00
2018-03-24T01:56:12.898Z,0.00
2018-03-24T01:57:12.870Z,0.00
2018-03-24T01:58:12.847Z,0.00
2018-03-24T01:59:12.829Z,0.00
2018-03-24T02:00:12.793Z,0.00
2018-03-24T02:01:12.776Z,0.00
2018-03-24T02:02:12.749Z,0.00
2018-03-24T02:03:12.716Z,0.00
2018-03-24T02:04:12.691Z,0.00
2018-03-24T02:05:12.666Z,0.00
2018-03-24T02:06:12.642Z,0.00
2018-03-24T02:07:12.616Z,0.00
2018-03-24T02:08:12.601Z,0.00
2018-03-24T02:09:12.564Z,0.00
2018-03-24T02:10:12.547Z,0.00
2018-03-24T02:11:12.513Z,0.00
2018-03-24T02:12:12.511Z,0.00
2018-03-24T02:13:12.468Z,0.00
2018-03-24T02:14:12.439Z,0.00
2018-03-24T02:15:12.412Z,0.00
2018-03-24T02:16:12.392Z,0.00
2018-03-24T02:17:12.366Z,0.00
2018-03-24T02:18:12.339Z,0.00
2018-03-24T02:19:12.308Z,0.00
2018-03-24T02:20:12.288Z,0.00
2018-03-24T02:21:12.261Z,0.00
2018-03-24T02:22:12.235Z,0.00
2018-03-24T02:23:12.208Z,0.00
2018-03-24T02:24:12.184Z,0.00
2018-03-24T02:25:12.158Z,0.00
2018-03-24T02:26:12.135Z,0.00
2018-03-24T02:27:12.107Z,0.00
2018-03-24T02:28:12.084Z,0.00
2018-03-24T02:29:12.060Z,0.00
2018-03-24T02:30:12.032Z,0.00
2018-03-24T02:31:12.017Z,0.00
2018-03-24T02:32:11.979Z,0.00
2018-03-24T02:33:11.958Z,0.00
2018-03-24T02:34:11.933Z,0.00
2018-03-24T02:35:11.905Z,0.00
2018-03-24T02:36:11.879Z,0.00
2018-03-24T02:37:11.865Z,0.00
2018-03-24T02:38:11.827Z,0.00
2018-03-24T02:39:11.805Z,0.00
2018-03-24T02:40:11.780Z,0.00
2018-03-24T02:41:11.764Z,0.00
2018-03-24T02:42:11.731Z,0.00
2018-03-24T02:43:11.701Z,0.00
2018-03-24T02:44:11.678Z,0.00
2018-03-24T02:45:11.652Z,0.00
2018-03-24T02:46:11.630Z,0.00
2018-03-24T02:47:11.600Z,0.00
2018-03-24T02:48:11.574Z,0.00
2018-03-24T02:49:11.550Z,0.00
2018-03-24T02:50:11.531Z,0.00
2018-03-24T02:51:11.497Z,0.00
2018-03-24T02:52:11.474Z,0.00
2018-03-24T02:53:11.446Z,0.00
2018-03-24T02:54:11.422Z,0.00
2018-03-24T02:55:11.399Z,0.00
2018-03-24T02:56:11.370Z,0.00
2018-03-24T02:57:11.344Z,0.00
2018-03-24T02:58:11.320Z,0.00
2018-03-24T02:59:11.298Z,0.00
2018-03-24T03:00:11.269Z,0.00
2018-03-24T03:01:11.243Z,0.00
2018-03-24T03:02:11.222Z,0.00
2018-03-24T03:03:11.189Z,0.00
2018-03-24T03:04:11.167Z,0.00
2018-03-24T03:05:11.145Z,0.00
2018-03-24T03:06:11.120Z,0.00
2018-03-24T03:07:11.088Z,0.00
2018-03-24T03:08:11.065Z,0.00
2018-03-24T03:09:11.039Z,0.00
2018-03-24T03:10:11.013Z,0.00
2018-03-24T03:11:10.988Z,0.00
2018-03-24T03:12:10.961Z,0.00
2018-03-24T03:13:10.969Z,0.00
2018-03-24T03:14:10.911Z,0.00
2018-03-24T03:15:10.882Z,0.00
2018-03-24T03:16:10.857Z,0.00
2018-03-24T03:17:10.832Z,0.00
2018-03-24T03:18:10.807Z,0.00
2018-03-24T03:19:10.780Z,0.00
2018-03-24T03:20:10.755Z,0.00
2018-03-24T03:21:10.734Z,0.00
2018-03-24T03:22:10.706Z,0.00
2018-03-24T03:23:10.678Z,0.00
2018-03-24T03:24:10.650Z,0.00
2018-03-24T03:25:10.629Z,0.00
2018-03-24T03:26:10.600Z,0.00
2018-03-24T03:27:10.573Z,0.00
2018-03-24T03:28:10.558Z,0.00
2018-03-24T03:29:10.521Z,0.00
2018-03-24T03:30:10.498Z,0.00
2018-03-24T03:31:10.471Z,0.00
2018-03-24T03:32:10.448Z,0.00
2018-03-24T03:33:10.420Z,0.00
2018-03-24T03:34:10.392Z,0.00
2018-03-24T03:35:10.367Z,0.00
2018-03-24T03:36:10.341Z,0.00
2018-03-24T03:37:10.325Z,0.00
2018-03-24T03:38:10.288Z,0.00
2018-03-24T03:39:10.263Z,0.00
2018-03-24T03:40:10.236Z,0.00
2018-03-24T03:41:10.210Z,0.00
2018-03-24T03:42:10.183Z,0.00
2018-03-24T03:43:10.160Z,0.00
2018-03-24T03:44:10.132Z,0.00
2018-03-24T03:45:10.108Z,0.00
2018-03-24T03:46:10.090Z,0.00
2018-03-24T03:47:10.053Z,0.00
2018-03-24T03:48:10.028Z,0.00
2018-03-24T03:49:10.004Z,0.00
2018-03-24T03:50:09.977Z,0.00
2018-03-24T03:51:09.949Z,0.00
2018-03-24T03:52:09.925Z,0.00
2018-03-24T03:53:09.900Z,0.00
2018-03-24T03:54:09.871Z,0.00
2018-03-24T03:55:09.850Z,0.00
2018-03-24T03:56:09.824Z,0.00
2018-03-24T03:57:09.792Z,0.00
2018-03-24T03:58:09.774Z,0.00
2018-03-24T03:59:09.742Z,0.00
2018-03-24T04:00:09.716Z,0.00
2018-03-24T04:01:09.692Z,0.00
2018-03-24T04:02:09.691Z,0.00
2018-03-24T04:03:09.653Z,0.00
2018-03-24T04:04:09.614Z,0.00
2018-03-24T04:05:09.585Z,0.00
2018-03-24T04:06:09.559Z,0.00
2018-03-24T04:07:09.533Z,0.00
2018-03-24T04:08:09.506Z,0.00
2018-03-24T04:09:09.482Z,0.00
2018-03-24T04:10:09.455Z,0.00
2018-03-24T04:11:09.429Z,0.00
2018-03-24T04:12:09.409Z,0.00
2018-03-24T04:13:09.377Z,0.00
2018-03-24T04:14:09.350Z,0.00
2018-03-24T04:15:09.334Z,0.00
2018-03-24T04:16:09.298Z,0.00
2018-03-24T04:17:09.272Z,0.00
2018-03-24T04:18:09.246Z,0.00
2018-03-24T04:19:09.219Z,0.00
2018-03-24T04:20:09.192Z,0.00
2018-03-24T04:21:09.167Z,0.00
2018-03-24T04:22:09.140Z,0.00
2018-03-24T04:23:09.116Z,0.00
2018-03-24T04:24:09.089Z,0.00
2018-03-24T04:25:09.062Z,0.00
2018-03-24T04:26:09.037Z,0.00
2018-03-24T04:27:09.009Z,0.00
2018-03-24T04:28:08.984Z,0.00
2018-03-24T04:29:08.958Z,0.00
2018-03-24T04:30:08.930Z,0.00
2018-03-24T04:31:08.905Z,0.00
2018-03-24T04:32:08.880Z,0.00
2018-03-24T04:33:08.853Z,0.00
2018-03-24T04:34:08.827Z,0.00
2018-03-24T04:35:08.799Z,0.00
2018-03-24T04:36:08.774Z,0.00
2018-03-24T04:37:08.748Z,0.00
2018-03-24T04:38:08.723Z,0.00
2018-03-24T04:39:08.696Z,0.00
2018-03-24T04:40:08.669Z,0.00
2018-03-24T04:41:08.644Z,0.00
2018-03-24T04:42:08.621Z,0.00
2018-03-24T04:43:08.590Z,0.00
2018-03-24T04:44:08.565Z,0.00
2018-03-24T04:45:08.542Z,0.00
2018-03-24T04:46:08.515Z,0.00
2018-03-24T04:47:08.485Z,0.00
2018-03-24T04:48:08.460Z,0.00
2018-03-24T04:49:08.456Z,0.00
2018-03-24T04:50:08.410Z,0.00
2018-03-24T04:51:08.380Z,0.00
2018-03-24T04:52:08.354Z,0.00
2018-03-24T04:53:08.328Z,0.00
2018-03-24T04:54:08.302Z,0.00
2018-03-24T04:55:08.275Z,0.00
2018-03-24T04:56:08.248Z,0.00
2018-03-24T04:57:08.222Z,0.00
2018-03-24T04:58:08.194Z,0.00
2018-03-24T04:59:08.169Z,0.00
2018-03-24T05:00:08.142Z,0.00
2018-03-24T05:01:08.117Z,0.00
2018-03-24T05:02:08.100Z,0.00
2018-03-24T05:03:08.063Z,4.00
2018-03-24T05:04:08.039Z,0.00
2018-03-24T05:05:08.013Z,0.00
2018-03-24T05:06:07.987Z,4.00
2018-03-24T05:07:07.959Z,0.00
2018-03-24T05:08:07.932Z,4.00
2018-03-24T05:09:07.906Z,4.00
2018-03-24T05:10:07.879Z,8.00
2018-03-24T05:11:07.856Z,8.00
2018-03-24T05:12:07.825Z,8.00
2018-03-24T05:13:07.801Z,8.00
2018-03-24T05:14:07.775Z,12.00
2018-03-24T05:15:07.748Z,12.00
2018-03-24T05:16:07.719Z,12.00
2018-03-24T05:17:07.694Z,16.00
2018-03-24T05:18:07.668Z,16.00
2018-03-24T05:19:07.639Z,20.00
2018-03-24T05:20:07.613Z,20.00
2018-03-24T05:21:07.586Z,24.00
2018-03-24T05:22:07.568Z,28.00
2018-03-24T05:23:07.533Z,32.00
2018-03-24T05:24:07.527Z,32.00
2018-03-24T05:25:07.481Z,36.00
2018-03-24T05:26:07.454Z,40.00
2018-03-24T05:27:07.427Z,44.00
2018-03-24T05:28:07.401Z,44.00
2018-03-24T05:29:07.375Z,52.00
2018-03-24T05:30:07.348Z,52.00
2018-03-24T05:31:07.321Z,60.00
2018-03-24T05:32:07.298Z,64.00
2018-03-24T05:33:07.268Z,72.00
2018-03-24T05:34:07.246Z,76.00
2018-03-24T05:35:07.220Z,80.00
2018-03-24T05:36:07.191Z,84.00
2018-03-24T05:37:07.163Z,92.00
2018-03-24T05:38:07.135Z,96.00
2018-03-24T05:39:07.122Z,104.00
2018-03-24T05:40:07.085Z,108.00
2018-03-24T05:41:07.054Z,112.00
2018-03-24T05:42:07.028Z,116.00
2018-03-24T05:43:07.004Z,124.00
2018-03-24T05:44:06.974Z,128.00
2018-03-24T05:45:06.948Z,132.00
2018-03-24T05:46:06.921Z,140.00
2018-03-24T05:47:06.895Z,144.00
2018-03-24T05:48:06.878Z,152.00
2018-03-24T05:49:06.842Z,156.00
2018-03-24T05:50:06.816Z,160.00
2018-03-24T05:51:06.789Z,168.00
2018-03-24T05:52:06.763Z,176.00
2018-03-24T05:53:06.734Z,180.00
2018-03-24T05:54:06.706Z,188.00
2018-03-24T05:55:06.681Z,192.00
2018-03-24T05:56:06.653Z,204.00
2018-03-24T05:57:06.628Z,208.00
2018-03-24T05:58:06.598Z,212.00
2018-03-24T05:59:06.574Z,220.00
2018-03-24T06:00:06.552Z,224.00
2018-03-24T06:01:06.528Z,232.00
2018-03-24T06:02:06.501Z,236.00
2018-03-24T06:03:06.465Z,244.00
2018-03-24T06:04:06.438Z,252.00
2018-03-24T06:05:06.434Z,256.00
2018-03-24T06:06:06.391Z,260.00
2018-03-24T06:07:06.362Z,268.00
2018-03-24T06:08:06.332Z,276.00
2018-03-24T06:09:06.309Z,280.00
2018-03-24T06:10:06.286Z,284.00
2018-03-24T06:11:06.256Z,292.00
2018-03-24T06:12:06.225Z,296.00
2018-03-24T06:13:06.200Z,304.00
2018-03-24T06:14:06.184Z,312.00
2018-03-24T06:15:06.148Z,320.00
2018-03-24T06:16:06.124Z,324.00
2018-03-24T06:17:06.101Z,336.00
2018-03-24T06:18:06.065Z,340.00
2018-03-24T06:19:06.041Z,348.00
2018-03-24T06:20:06.011Z,352.00
2018-03-24T06:21:05.986Z,360.00
2018-03-24T06:22:05.963Z,364.00
2018-03-24T06:23:05.932Z,372.00
2018-03-24T06:24:05.914Z,384.00
2018-03-24T06:25:05.879Z,384.00
2018-03-24T06:26:05.855Z,388.00
2018-03-24T06:27:05.827Z,392.00
2018-03-24T06:28:05.797Z,396.00
2018-03-24T06:29:05.777Z,396.00
2018-03-24T06:30:05.745Z,400.00
2018-03-24T06:31:05.719Z,396.00
2018-03-24T06:32:05.691Z,396.00
2018-03-24T06:33:05.670Z,376.00
2018-03-24T06:34:05.640Z,380.00
2018-03-24T06:35:05.636Z,380.00
2018-03-24T06:36:05.599Z,388.00
2018-03-24T06:37:05.567Z,392.00
2018-03-24T06:38:05.555Z,392.00
2018-03-24T06:39:05.533Z,400.00
2018-03-24T06:40:05.489Z,412.00
2018-03-24T06:41:05.465Z,424.00
2018-03-24T06:42:05.428Z,432.00
2018-03-24T06:43:05.398Z,424.00
2018-03-24T06:44:06.339Z,416.00
2018-03-24T06:45:05.348Z,420.00
2018-03-24T06:46:05.325Z,420.00
2018-03-24T06:47:05.297Z,440.00
2018-03-24T06:48:05.272Z,444.00
2018-03-24T06:49:05.294Z,440.00
2018-03-24T06:50:05.218Z,484.00
2018-03-24T06:51:05.188Z,468.00
2018-03-24T06:52:05.163Z,500.00
2018-03-24T06:53:05.140Z,504.00
2018-03-24T06:54:05.113Z,508.00
2018-03-24T06:55:05.086Z,512.00
2018-03-24T06:56:05.059Z,512.00
2018-03-24T06:57:05.060Z,524.00
2018-03-24T06:58:05.005Z,540.00
2018-03-24T06:59:04.983Z,544.00
2018-03-24T07:00:04.952Z,548.00
2018-03-24T07:01:04.928Z,556.00
2018-03-24T07:02:04.901Z,568.00
2018-03-24T07:03:04.872Z,580.00
2018-03-24T07:04:04.847Z,604.00
2018-03-24T07:05:04.885Z,612.00
2018-03-24T07:06:04.808Z,616.00
2018-03-24T07:07:04.773Z,620.00
2018-03-24T07:08:04.746Z,628.00
2018-03-24T07:09:04.718Z,624.00
2018-03-24T07:10:04.698Z,608.00
2018-03-24T07:11:04.666Z,612.00
2018-03-24T07:12:04.641Z,624.00
2018-03-24T07:13:04.669Z,612.00
2018-03-24T07:14:04.590Z,616.00
2018-03-24T07:15:04.563Z,604.00
2018-03-24T07:16:04.543Z,612.00
2018-03-24T07:17:04.511Z,616.00
2018-03-24T07:18:04.486Z,624.00
2018-03-24T07:19:04.460Z,628.00
2018-03-24T07:20:04.436Z,636.00
2018-03-24T07:21:04.444Z,660.00
2018-03-24T07:22:04.384Z,676.00
2018-03-24T07:23:04.361Z,688.00
2018-03-24T07:24:04.331Z,704.00
2018-03-24T07:25:04.308Z,716.00
2018-03-24T07:26:04.285Z,732.00
2018-03-24T07:27:04.258Z,748.00
2018-03-24T07:28:04.233Z,764.00
2018-03-24T07:29:04.208Z,776.00
2018-03-24T07:30:04.189Z,792.00
2018-03-24T07:31:04.153Z,808.00
2018-03-24T07:32:04.128Z,820.00
2018-03-24T07:33:04.103Z,828.00
2018-03-24T07:34:04.081Z,840.00
2018-03-24T07:35:04.055Z,848.00
2018-03-24T07:36:04.030Z,860.00
2018-03-24T07:37:04.006Z,856.00
2018-03-24T07:38:03.978Z,808.00
2018-03-24T07:39:03.951Z,792.00
2018-03-24T07:40:03.930Z,792.00
2018-03-24T07:41:03.902Z,788.00
2018-03-24T07:42:03.878Z,788.00
2018-03-24T07:43:03.856Z,784.00
2018-03-24T07:44:03.825Z,796.00
2018-03-24T07:45:03.801Z,800.00
2018-03-24T07:46:03.775Z,808.00
2018-03-24T07:47:03.750Z,808.00
2018-03-24T07:48:03.759Z,816.00
2018-03-24T07:49:03.700Z,840.00
2018-03-24T07:50:03.677Z,856.00
2018-03-24T07:51:03.654Z,880.00
2018-03-24T07:52:03.625Z,900.00
2018-03-24T07:53:03.600Z,916.00
2018-03-24T07:54:03.576Z,936.00
2018-03-24T07:55:03.551Z,948.00
2018-03-24T07:56:03.527Z,952.00
2018-03-24T07:57:03.502Z,948.00
2018-03-24T07:58:03.476Z,964.00
2018-03-24T07:59:03.456Z,980.00
2018-03-24T08:00:03.427Z,1016.00
2018-03-24T08:01:03.405Z,1040.00
2018-03-24T08:02:03.379Z,1056.00
2018-03-24T08:03:03.351Z,1072.00
2018-03-24T08:04:03.328Z,1092.00
2018-03-24T08:05:03.307Z,1120.00
2018-03-24T08:06:03.282Z,1140.00
2018-03-24T08:07:03.260Z,1160.00
2018-03-24T08:08:03.229Z,1196.00
2018-03-24T08:09:03.224Z,1248.00
2018-03-24T08:10:03.181Z,1296.00
2018-03-24T08:11:03.157Z,1328.00
2018-03-24T08:12:03.135Z,1356.00
2018-03-24T08:13:03.111Z,1384.00
2018-03-24T08:14:03.086Z,1404.00
2018-03-24T08:15:03.058Z,1412.00
2018-03-24T08:16:03.037Z,1408.00
2018-03-24T08:17:03.013Z,1408.00
2018-03-24T08:18:02.986Z,1408.00
2018-03-24T08:19:02.961Z,1408.00
2018-03-24T08:20:02.940Z,1396.00
2018-03-24T08:21:02.913Z,1368.00
2018-03-24T08:22:02.890Z,1364.00
2018-03-24T08:23:02.864Z,1376.00
2018-03-24T08:24:02.844Z,1384.00
2018-03-24T08:25:02.820Z,1396.00
2018-03-24T08:26:02.793Z,1408.00
2018-03-24T08:27:02.771Z,1420.00
2018-03-24T08:28:02.752Z,1448.00
2018-03-24T08:29:02.722Z,1468.00
2018-03-24T08:30:02.699Z,1488.00
2018-03-24T08:31:02.675Z,1512.00
2018-03-24T08:32:02.653Z,1524.00
2018-03-24T08:33:02.627Z,1520.00
2018-03-24T08:34:02.604Z,1468.00
2018-03-24T08:35:02.585Z,1440.00
2018-03-24T08:36:02.556Z,1448.00
2018-03-24T08:37:02.533Z,1464.00
2018-03-24T08:38:02.509Z,1448.00
2018-03-24T08:39:02.490Z,1492.00
2018-03-24T08:40:02.507Z,1520.00
2018-03-24T08:41:02.441Z,1536.00
2018-03-24T08:42:02.421Z,1556.00
2018-03-24T08:43:02.394Z,1552.00
2018-03-24T08:44:02.369Z,1536.00
2018-03-24T08:45:02.415Z,1548.00
2018-03-24T08:46:02.324Z,1544.00
2018-03-24T08:47:02.300Z,1580.00
2018-03-24T08:48:02.282Z,1600.00
2018-03-24T08:49:02.311Z,1612.00
2018-03-24T08:50:02.929Z,1632.00
2018-03-24T08:51:02.207Z,1644.00
2018-03-24T08:52:03.643Z,1652.00
2018-03-24T08:53:02.162Z,1668.00
2018-03-24T08:54:02.146Z,1652.00
2018-03-24T08:55:02.167Z,1652.00
2018-03-24T08:56:03.825Z,1688.00
2018-03-24T08:57:02.127Z,1688.00
2018-03-24T08:58:02.114Z,1696.00
2018-03-24T08:59:02.035Z,1724.00
2018-03-24T09:00:02.076Z,1724.00
2018-03-24T09:01:02.004Z,1704.00
2018-03-24T09:02:01.965Z,1720.00
2018-03-24T09:03:01.934Z,1720.00
2018-03-24T09:04:01.910Z,1712.00
2018-03-24T09:05:01.889Z,1676.00
2018-03-24T09:06:01.865Z,1672.00
2018-03-24T09:07:01.848Z,1672.00
2018-03-24T09:08:02.319Z,1676.00
2018-03-24T09:09:01.851Z,1684.00
2018-03-24T09:10:01.792Z,1724.00
2018-03-24T09:11:01.750Z,1752.00
2018-03-24T09:12:01.786Z,1764.00
2018-03-24T09:13:01.709Z,1764.00
2018-03-24T09:14:01.685Z,1792.00
2018-03-24T09:15:01.703Z,1784.00
2018-03-24T09:16:01.639Z,1796.00
2018-03-24T09:17:01.626Z,1820.00
2018-03-24T09:18:01.647Z,1816.00
2018-03-24T09:19:01.574Z,1812.00
2018-03-24T09:20:01.665Z,1812.00
2018-03-24T09:21:01.530Z,1828.00
2018-03-24T09:22:01.514Z,1872.00
2018-03-24T09:23:01.501Z,1932.00
2018-03-24T09:24:01.465Z,1964.00
2018-03-24T09:25:01.444Z,1960.00
2018-03-24T09:26:01.440Z,1988.00
2018-03-24T09:27:01.448Z,1976.00
2018-03-24T09:28:01.386Z,1992.00
2018-03-24T09:29:01.395Z,2020.00
2018-03-24T09:30:01.332Z,2032.00
2018-03-24T09:31:01.381Z,2064.00
2018-03-24T09:32:01.288Z,2068.00
2018-03-24T09:33:01.303Z,2072.00
2018-03-24T09:34:01.243Z,2080.00
2018-03-24T09:35:01.260Z,2108.00
2018-03-24T09:36:01.201Z,2280.00
2018-03-24T09:37:01.188Z,2272.00
2018-03-24T09:38:01.155Z,2292.00
2018-03-24T09:39:01.138Z,2400.00
2018-03-24T09:40:01.114Z,2524.00
2018-03-24T09:41:01.092Z,2512.00
2018-03-24T09:42:01.070Z,2476.00
2018-03-24T09:43:01.049Z,2588.00
2018-03-24T09:44:01.028Z,2488.00
2018-03-24T09:45:01.004Z,2720.00
2018-03-24T09:46:00.991Z,2728.00
2018-03-24T09:47:00.959Z,2896.00
2018-03-24T09:48:00.957Z,2856.00
2018-03-24T09:49:00.917Z,2976.00
2018-03-24T09:50:00.903Z,2888.00
2018-03-24T09:51:00.875Z,3000.00
2018-03-24T09:52:00.851Z,3160.00
2018-03-24T09:53:00.831Z,3212.00
2018-03-24T09:54:00.822Z,3260.00
2018-03-24T09:55:00.787Z,3356.00
2018-03-24T09:56:00.767Z,2936.00
2018-03-24T09:57:00.763Z,3052.00
2018-03-24T09:58:00.723Z,3380.00
2018-03-24T09:59:00.744Z,3396.00
2018-03-24T10:00:00.731Z,3560.00
2018-03-24T10:01:00.694Z,3420.00
2018-03-24T10:02:00.637Z,3348.00
2018-03-24T10:03:00.616Z,3708.00
2018-03-24T10:04:00.651Z,3792.00
2018-03-24T10:05:00.573Z,4264.00
2018-03-24T10:06:00.578Z,3812.00
2018-03-24T10:07:00.535Z,3892.00
2018-03-24T10:08:00.509Z,3920.00
2018-03-24T10:09:00.490Z,3940.00
2018-03-24T10:10:00.472Z,4736.00
2018-03-24T10:11:00.494Z,4400.00
2018-03-24T10:12:00.427Z,4488.00
2018-03-24T10:13:00.409Z,4452.00
2018-03-24T10:14:00.385Z,4268.00
2018-03-24T10:15:00.365Z,4328.00
2018-03-24T10:16:00.345Z,4936.00
2018-03-24T10:17:00.324Z,5236.00
2018-03-24T10:18:00.307Z,5436.00
2018-03-24T10:19:00.282Z,6168.00
2018-03-24T10:20:00.259Z,7128.00
2018-03-24T10:21:00.240Z,6964.00
2018-03-24T10:22:00.234Z,7428.00
2018-03-24T10:23:00.201Z,7396.00
2018-03-24T10:24:00.185Z,8088.00
2018-03-24T10:25:00.164Z,7636.00
2018-03-24T10:26:00.140Z,7424.00
2018-03-24T10:27:00.124Z,9076.00
2018-03-24T10:28:00.104Z,9388.00
2018-03-24T10:29:00.083Z,9908.00
2018-03-24T10:30:00.082Z,10800.00
2018-03-24T10:31:00.046Z,13528.00
2018-03-24T10:32:00.032Z,14336.00
2018-03-24T10:33:00.055Z,15392.00
2018-03-24T10:33:59.986Z,15616.00
2018-03-24T10:34:59.979Z,16320.00
2018-03-24T10:35:59.951Z,17312.00
2018-03-24T10:36:59.938Z,17440.00
2018-03-24T10:37:59.916Z,17568.00
2018-03-24T10:38:59.898Z,17088.00
2018-03-24T10:39:59.890Z,16832.00
2018-03-24T10:40:59.869Z,15840.00
2018-03-24T10:41:59.850Z,14976.00
2018-03-24T10:42:59.834Z,13720.00
2018-03-24T10:43:59.886Z,14200.00
2018-03-24T10:44:59.864Z,14784.00
2018-03-24T10:45:59.853Z,14912.00
2018-03-24T10:46:59.800Z,15296.00
2018-03-24T10:47:59.798Z,15744.00
2018-03-24T10:48:59.747Z,15584.00
2018-03-24T10:49:59.741Z,6332.00
2018-03-24T10:50:59.720Z,14136.00
2018-03-24T10:51:59.709Z,15136.00
2018-03-24T10:52:59.695Z,14528.00
2018-03-24T10:53:59.711Z,13860.00
2018-03-24T10:54:59.689Z,14004.00
2018-03-24T10:55:59.658Z,15008.00
2018-03-24T10:56:59.642Z,15552.00
2018-03-24T10:57:59.672Z,15712.00
2018-03-24T10:58:59.620Z,15200.00
2018-03-24T10:59:59.663Z,4128.00
2018-03-24T11:00:59.640Z,3792.00
2018-03-24T11:01:59.591Z,3944.00
2018-03-24T11:02:59.627Z,4200.00
2018-03-24T11:03:59.591Z,17248.00
2018-03-24T11:04:59.571Z,18016.00
2018-03-24T11:05:59.606Z,18688.00
2018-03-24T11:06:59.556Z,17888.00
2018-03-24T11:07:59.545Z,17600.00
2018-03-24T11:08:59.531Z,18912.00
2018-03-24T11:09:59.524Z,17568.00
2018-03-24T11:10:59.518Z,13924.00
2018-03-24T11:11:59.512Z,15136.00
2018-03-24T11:12:59.448Z,9528.00
2018-03-24T11:13:59.430Z,15200.00
2018-03-24T11:14:59.413Z,17856.00
2018-03-24T11:15:59.456Z,17280.00
2018-03-24T11:16:59.466Z,7888.00
2018-03-24T11:17:59.376Z,4872.00
2018-03-24T11:18:59.369Z,5300.00
2018-03-24T11:19:59.415Z,15648.00
2018-03-24T11:20:59.397Z,15776.00
2018-03-24T11:21:59.331Z,12008.00
2018-03-24T11:22:59.391Z,16160.00
2018-03-24T11:23:59.351Z,15456.00
2018-03-24T11:24:59.360Z,10344.00
2018-03-24T11:25:59.335Z,5444.00
2018-03-24T11:26:59.306Z,7924.00
2018-03-24T11:27:59.298Z,16032.00
2018-03-24T11:28:59.300Z,17248.00
2018-03-24T11:29:59.253Z,17472.00
2018-03-24T11:30:59.290Z,17536.00
2018-03-24T11:31:59.212Z,18976.00
2018-03-24T11:32:59.240Z,17760.00
2018-03-24T11:33:59.200Z,18912.00
2018-03-24T11:34:59.172Z,19552.00
2018-03-24T11:35:59.182Z,19680.00
2018-03-24T11:36:59.156Z,8264.00
2018-03-24T11:37:59.135Z,4948.00
2018-03-24T11:38:59.126Z,4632.00
2018-03-24T11:39:59.112Z,4308.00
2018-03-24T11:40:59.115Z,4584.00
2018-03-24T11:41:59.111Z,4724.00
2018-03-24T11:42:59.094Z,4288.00
2018-03-24T11:43:59.069Z,3820.00
2018-03-24T11:44:59.067Z,3784.00
2018-03-24T11:45:59.054Z,7568.00
2018-03-24T11:46:59.036Z,20384.00
2018-03-24T11:47:59.025Z,16128.00
2018-03-24T11:48:59.011Z,21152.00
2018-03-24T11:49:58.999Z,21280.00
2018-03-24T11:50:58.986Z,20384.00
2018-03-24T11:51:58.973Z,19680.00
2018-03-24T11:52:58.961Z,5940.00
2018-03-24T11:53:58.950Z,4680.00
2018-03-24T11:54:58.954Z,3848.00
2018-03-24T11:55:58.927Z,3396.00
2018-03-24T11:56:58.921Z,2916.00
2018-03-24T11:58:00.266Z,2668.00
2018-03-24T11:58:59.006Z,2300.00
2018-03-24T11:59:59.027Z,1968.00
2018-03-24T12:00:58.865Z,1784.00
2018-03-24T12:01:59.242Z,1708.00
2018-03-24T12:02:58.880Z,1664.00
2018-03-24T12:03:58.830Z,1700.00
2018-03-24T12:04:58.813Z,1868.00
2018-03-24T12:05:58.802Z,2252.00
2018-03-24T12:06:58.954Z,17792.00
2018-03-24T12:07:58.832Z,17856.00
2018-03-24T12:08:58.761Z,16416.00
2018-03-24T12:09:59.046Z,11716.00
2018-03-24T12:10:58.732Z,5204.00
2018-03-24T12:11:58.719Z,4504.00
2018-03-24T12:12:58.706Z,4116.00
2018-03-24T12:13:58.690Z,3868.00
2018-03-24T12:14:58.692Z,3840.00
2018-03-24T12:15:58.667Z,3724.00
2018-03-24T12:16:58.655Z,3528.00
2018-03-24T12:17:58.683Z,3340.00
2018-03-24T12:18:58.644Z,2864.00
2018-03-24T12:19:59.533Z,2388.00
2018-03-24T12:20:58.649Z,2168.00
2018-03-24T12:21:58.618Z,2044.00
2018-03-24T12:22:58.655Z,2032.00
2018-03-24T12:23:58.610Z,2012.00
2018-03-24T12:24:58.524Z,2040.00
2018-03-24T12:25:58.513Z,2072.00
2018-03-24T12:26:58.492Z,2080.00
2018-03-24T12:27:58.486Z,2096.00
2018-03-24T12:28:58.509Z,2140.00
2018-03-24T12:29:58.445Z,2192.00
2018-03-24T12:30:58.463Z,2188.00
2018-03-24T12:31:58.411Z,2236.00
2018-03-24T12:32:58.430Z,2304.00
2018-03-24T12:33:58.379Z,2388.00
2018-03-24T12:34:58.374Z,2464.00
2018-03-24T12:35:59.525Z,2380.00
2018-03-24T12:36:58.340Z,2244.00
2018-03-24T12:37:58.311Z,2176.00